Latest Coastal Weather Observations for Wyndham Airport

IDW60701

Issued at 4:22 pm WST Thursday 2 July 2015 (issued every 10 minutes, with the page automatically refreshed every 10 minutes)

About coastal observations | Map of coastal stations | Coastal observations for WA | Marine services | Other Formats
Station Details ID: 001006 Name: WYNDHAM AERO Lat: -15.51 Lon: 128.15 Height: 3.8 m
Data from the previous 72 hours. | See also: Recent months for locations in Western Australia
Date/Time
WST
Temp

°C
Wind Pressure Rain
since 9am
mm
Weather Cloud Vis
km
Sea
Height
m
Swell
Dir
 
Speed
knots
Gust
knots
hPa Trend Height
m
Period
s
Dir
02/04:00pm 31.3 SE 10 15 1014.2 - 0.0 - - - - - - -
02/03:30pm 31.4 ESE 11 15 1014.1 - 0.0 - - - - - - -
02/03:00pm 31.6 ESE 13 19 1014.2 - 0.0 - - - - - - -
02/02:30pm 31.6 ESE 12 18 1014.3 - 0.0 - - - - - - -
02/02:00pm 32.1 E 12 17 1014.6 - 0.0 - - - - - - -
02/01:30pm 31.7 ESE 10 18 1015.1 - 0.0 - - - - - - -
02/01:00pm 32.0 ESE 13 21 1015.5 - 0.0 - - - - - - -
02/12:30pm 30.6 E 12 17 1016.1 - 0.0 - - - - - - -
02/12:00pm 30.6 E 12 15 1016.8 - 0.0 - - - - - - -
02/11:30am 32.2 ESE 15 20 1017.3 - 0.0 - - - - - - -
02/11:00am 31.1 E 14 21 1017.8 - 0.0 - - - - - - -
02/10:30am 30.0 ESE 17 21 1018.3 - 0.0 - - - - - - -
02/10:00am 29.6 E 18 23 1018.7 - 0.0 - - - - - - -
02/09:30am 29.3 E 19 26 1018.9 - 0.0 - - - - - - -
02/09:00am 27.9 ESE 18 24 1019.1 - 0.0 - - - - - - -
02/08:30am 28.0 ESE 17 22 1019.2 - 0.0 - - - - - - -
02/08:00am 28.0 ESE 15 23 1019.2 - 0.0 - - - - - - -
02/07:30am 25.5 ESE 8 10 1019.1 - 0.0 - - - - - - -
02/07:00am 22.1 E 4 5 1019.0 - 0.0 - - - - - - -
02/06:30am 19.9 E 5 7 1018.8 - 0.0 - - - - - - -
02/06:00am 20.8 E 7 8 1018.6 - 0.0 - - - - - - -
02/05:30am 20.6 E 6 7 1018.3 - 0.0 - - - - - - -
02/05:00am 20.4 E 5 6 1018.2 - 0.0 - - - - - - -
02/04:30am 21.2 ENE 5 6 1017.9 - 0.0 - - - - - - -
02/04:00am 21.8 E 4 5 1017.8 - 0.0 - - - - - - -
02/03:30am 22.4 E 4 5 1017.6 - 0.0 - - - - - - -
02/03:00am 22.2 ENE 4 5 1017.5 - 0.0 - - - - - - -
02/02:30am 22.2 NE 4 5 1017.4 - 0.0 - - - - - - -
02/02:00am 22.5 E 4 5 1017.6 - 0.0 - - - - - - -
02/01:30am 22.9 ENE 5 5 1017.8 - 0.0 - - - - - - -
02/01:00am 23.2 E 5 6 1017.8 - 0.0 - - - - - - -
02/12:30am 22.5 ENE 5 6 1017.9 - 0.0 - - - - - - -
02/12:00am 22.7 E 5 6 1017.9 - 0.0 - - - - - - -
 
Date/Time
WST
Temp

°C
Wind Pressure Rain
since 9am
mm
Weather Cloud Vis
km
Sea
Height
m
Swell
Dir
 
Speed
knots
Gust
knots
hPa Trend Height
m
Period
s
Dir
01/11:30pm 20.4 NNW 3 4 1017.7 - 0.0 - - - - - - -
01/11:00pm 23.1 ENE 5 5 1017.8 - 0.0 - - - - - - -
01/10:30pm 23.1 E 5 6 1017.9 - 0.0 - - - - - - -
01/10:00pm 23.3 ENE 6 7 1017.9 - 0.0 - - - - - - -
01/09:30pm 23.4 E 6 7 1017.9 - 0.0 - - - - - - -
01/09:00pm 23.5 ENE 6 7 1017.8 - 0.0 - - - - - - -
01/08:30pm 24.1 E 7 8 1017.7 - 0.0 - - - - - - -
01/08:00pm 24.7 ESE 6 8 1017.6 - 0.0 - - - - - - -
01/07:30pm 24.8 ESE 7 8 1017.3 - 0.0 - - - - - - -
01/07:00pm 24.0 ESE 7 9 1016.8 - 0.0 - - - - - - -
01/06:30pm 24.6 SE 7 9 1016.4 - 0.0 - - - - - - -
01/06:00pm 25.7 ESE 7 9 1015.9 - 0.0 - - - - - - -
01/05:30pm 27.6 E 6 7 1015.7 - 0.0 - - - - - - -
01/05:00pm 29.6 E 9 12 1015.4 - 0.0 - - - - - - -
01/04:30pm 30.8 ESE 11 15 1015.2 - 0.0 - - - - - - -
01/04:00pm 31.5 E 10 14 1015.0 - 0.0 - - - - - - -
01/03:30pm 31.1 SE 10 14 1015.0 - 0.0 - - - - - - -
01/03:00pm 32.3 E 7 14 1014.9 - 0.0 - - - - - - -
01/02:30pm 32.5 ESE 12 17 1015.1 - 0.0 - - - - - - -
01/02:00pm 31.9 ESE 8 13 1015.2 - 0.0 - - - - - - -
01/01:30pm 32.2 ESE 11 17 1015.5 - 0.0 - - - - - - -
01/01:00pm 32.1 E 11 16 1016.0 - 0.0 - - - - - - -
01/12:30pm 32.2 E 12 18 1016.5 - 0.0 - - - - - - -
01/12:00pm 31.5 E 14 21 1017.1 - 0.0 - - - - - - -
01/11:30am 31.6 E 14 19 1017.7 - 0.0 - - - - - - -
01/11:00am 31.2 E 15 22 1018.2 - 0.0 - - - - - - -
01/10:30am 30.6 ESE 15 19 1018.8 - 0.0 - - - - - - -
01/10:00am 29.4 E 16 21 1019.4 - 0.0 - - - - - - -
01/09:30am 29.0 E 15 20 1019.7 - 0.0 - - - - - - -
01/09:00am 28.2 ESE 16 19 1019.9 - 0.0 - - - - - - -
01/08:30am 27.7 ESE 18 24 1020.0 - 0.0 - - - - - - -
01/08:22am 27.5 ESE 17 24 1019.9 - 0.0 - - - - - - -
01/08:00am 26.8 ESE 11 14 1019.9 - 0.0 - - - - - - -
01/07:30am 25.3 E 7 10 1019.7 - 0.0 - - - - - - -
01/07:00am 22.8 E 7 8 1019.4 - 0.0 - - - - - - -
01/06:30am 20.9 E 6 7 1019.0 - 0.0 - - - - - - -
01/06:00am 16.2 ENE 4 6 1018.8 - 0.0 - - - - - - -
01/05:30am 16.3 SE 2 3 1018.5 - 0.0 - - - - - - -
01/05:00am 16.7 E 3 5 1018.3 - 0.0 - - - - - - -
01/04:30am 15.7 E 5 5 1018.2 - 0.0 - - - - - - -
01/04:00am 15.3 E 5 5 1018.2 - 0.0 - - - - - - -
01/03:30am 15.2 NE 2 4 1018.1 - 0.0 - - - - - - -
01/03:00am 17.1 WNW 2 3 1017.8 - 0.0 - - - - - - -
01/02:30am 19.0 NNW 4 5 1017.6 - 0.0 - - - - - - -
01/02:00am 18.0 NW 4 5 1017.6 - 0.0 - - - - - - -
01/01:30am 16.6 WNW 4 5 1017.7 - 0.0 - - - - - - -
01/01:00am 16.6 W 4 6 1017.9 - 0.0 - - - - - - -
01/12:30am 16.7 NW 1 5 1017.9 - 0.0 - - - - - - -
01/12:00am 18.0 CALM 0 0 1018.0 - 0.0 - - - - - - -
 
Date/Time
WST
Temp

°C
Wind Pressure Rain
since 9am
mm
Weather Cloud Vis
km
Sea
Height
m
Swell
Dir
 
Speed
knots
Gust
knots
hPa Trend Height
m
Period
s
Dir
30/11:30pm 18.9 S 1 3 1017.9 - 0.0 - - - - - - -
30/11:00pm 18.7 SSW 5 6 1017.8 - 0.0 - - - - - - -
30/10:30pm 17.8 NNE 4 6 1017.7 - 0.0 - - - - - - -
30/10:00pm 18.8 ENE 3 4 1017.9 - 0.0 - - - - - - -
30/09:30pm 18.5 ENE 5 5 1018.0 - 0.0 - - - - - - -
30/09:00pm 19.3 ENE 4 5 1018.0 - 0.0 - - - - - - -
30/08:30pm 21.1 E 4 5 1017.8 - 0.0 - - - - - - -
30/08:00pm 23.7 E 5 6 1017.6 - 0.0 - - - - - - -
30/07:30pm 23.9 E 5 5 1017.3 - 0.0 - - - - - - -
30/07:00pm 24.5 NE 5 5 1016.9 - 0.0 - - - - - - -
30/06:30pm 23.5 ESE 6 7 1016.5 - 0.0 - - - - - - -
30/06:00pm 25.2 SE 5 7 1016.0 - 0.0 - - - - - - -
30/05:30pm 25.9 E 5 6 1015.7 - 0.0 - - - - - - -
30/05:00pm 28.9 E 7 9 1015.5 - 0.0 - - - - - - -
30/04:30pm 30.2 ESE 9 14 1015.2 - 0.0 - - - - - - -
30/04:00pm 30.9 ESE 11 16 1014.9 - 0.0 - - - - - - -
30/03:30pm 31.1 ESE 11 16 1014.7 - 0.0 - - - - - - -
30/03:00pm 31.2 ESE 11 15 1014.7 - 0.0 - - - - - - -
30/02:30pm 31.4 ESE 11 17 1014.8 - 0.0 - - - - - - -
30/02:00pm 31.5 ESE 11 16 1015.0 - 0.0 - - - - - - -
30/01:30pm 31.7 ESE 10 15 1015.2 - 0.0 - - - - - - -
30/01:00pm 31.6 E 10 16 1015.7 - 0.0 - - - - - - -
30/12:30pm 31.2 ESE 9 14 1016.2 - 0.0 - - - - - - -
30/12:00pm 31.5 E 10 17 1016.7 - 0.0 - - - - - - -
30/11:30am 31.1 E 12 22 1017.2 - 0.0 - - - - - - -
30/11:00am 31.6 ESE 13 21 1017.7 - 0.0 - - - - - - -
30/10:30am 30.4 E 13 20 1018.1 - 0.0 - - - - - - -
30/10:00am 30.5 ESE 13 17 1018.6 - 0.0 - - - - - - -
30/09:30am 29.5 ESE 14 20 1018.9 - 0.0 - - - - - - -
30/09:00am 28.4 ESE 9 11 1019.2 - 0.0 - - - - - - -
30/08:30am 26.2 S 3 5 1019.3 - 0.0 - - - - - - -
30/08:00am 24.8 ENE 2 4 1019.3 - 0.0 - - - - - - -
30/07:30am 21.3 CALM 0 0 1019.2 - 0.0 - - - - - - -
30/07:00am 18.3 CALM 0 0 1018.9 - 0.0 - - - - - - -
30/06:30am 15.5 CALM 0 0 1018.6 - 0.0 - - - - - - -
30/06:00am 13.8 CALM 0 0 1018.2 - 0.0 - - - - - - -
30/05:30am 13.9 CALM 0 0 1017.9 - 0.0 - - - - - - -
30/05:00am 14.9 CALM 0 0 1017.5 - 0.0 - - - - - - -
30/04:30am 15.7 CALM 0 2 1017.4 - 0.0 - - - - - - -
30/04:00am 14.9 NW 3 4 1017.3 - 0.0 - - - - - - -
30/03:30am 14.4 WSW 1 4 1017.1 - 0.0 - - - - - - -
30/03:00am 14.6 ESE 1 3 1017.0 - 0.0 - - - - - - -
30/02:30am 14.3 CALM 0 0 1017.1 - 0.0 - - - - - - -
30/02:00am 14.2 ESE 2 3 1017.1 - 0.0 - - - - - - -
30/01:30am 15.0 E 4 4 1017.0 - 0.0 - - - - - - -
30/01:00am 16.1 ENE 4 5 1017.2 - 0.0 - - - - - - -
30/12:30am 17.3 S 2 4 1017.3 - 0.0 - - - - - - -
30/12:00am 17.7 E 3 4 1017.3 - 0.0 - - - - - - -
 
Date/Time
WST
Temp

°C
Wind Pressure Rain
since 9am
mm
Weather Cloud Vis
km
Sea
Height
m
Swell
Dir
 
Speed
knots
Gust
knots
hPa Trend Height
m
Period
s
Dir
29/11:30pm 17.8 ESE 8 8 1017.3 - 0.0 - - - - - - -
29/11:00pm 17.9 E 4 5 1017.3 - 0.0 - - - - - - -
29/10:30pm 20.1 ENE 5 5 1017.1 - 0.0 - - - - - - -
29/10:00pm 19.9 E 5 6 1017.4 - 0.0 - - - - - - -
29/09:30pm 19.5 E 6 7 1017.3 - 0.0 - - - - - - -
29/09:00pm 19.2 E 7 7 1017.2 - 0.0 - - - - - - -
29/08:30pm 19.5 CALM 0 0 1017.2 - 0.0 - - - - - - -
29/08:00pm 19.7 CALM 0 0 1017.0 - 0.0 - - - - - - -
29/07:30pm 22.7 CALM 0 0 1016.9 - 0.0 - - - - - - -
29/07:00pm 22.9 WNW 5 5 1016.5 - 0.0 - - - - - - -
29/06:30pm 24.3 SW 4 6 1016.2 - 0.0 - - - - - - -
29/06:00pm 25.2 N 6 8 1015.8 - 0.0 - - - - - - -
29/05:30pm 25.1 SE 7 7 1015.5 - 0.0 - - - - - - -
29/05:00pm 27.9 SE 7 8 1015.3 - 0.0 - - - - - - -
29/04:30pm 30.0 SE 6 8 1015.0 - 0.0 - - - - - - -

Other Formats:

Comma delimited format used in spreadsheet applications
http://www.bom.gov.au/fwo/IDW60701/IDW60701.95214.axf

JavaScript Object Notation format (JSON) in row-major order
http://www.bom.gov.au/fwo/IDW60701/IDW60701.95214.json